Time;durP1;ratioP1;P1;durP2;ratioP2;P2;SDS_P1;SDS_P2;PMS_P1;PMS_P2;Temp;Humidity;BMP_temperature;BMP_pressure;BME280_temperature;BME280_humidity;BME280_pressure;Samples;Min_cycle;Max_cycle;Signal;HPM_P1;HPM_P2
2020/12/03 00:01:33;;;;;;;24.25;11.57;;;0.50;99.90;;;;;;1944757;74;21133;-74
2020/12/03 00:04:00;;;;;;;33.00;13.60;;;0.60;99.90;;;;;;1944800;74;21083;-74
2020/12/03 00:06:26;;;;;;;23.87;11.60;;;0.80;99.90;;;;;;1944592;74;21092;-74
2020/12/03 00:08:52;;;;;;;29.82;12.47;;;0.80;99.90;;;;;;1944821;74;21137;-74
2020/12/03 00:11:18;;;;;;;27.15;12.33;;;0.80;99.90;;;;;;1944691;74;21050;-74
2020/12/03 00:13:44;;;;;;;28.77;12.40;;;0.60;99.90;;;;;;1944775;74;21070;-74
2020/12/03 00:16:10;;;;;;;27.20;12.35;;;0.50;99.90;;;;;;1944525;74;21150;-74
2020/12/03 00:18:36;;;;;;;33.60;12.88;;;0.40;99.90;;;;;;1944636;74;21464;-74
2020/12/03 00:21:02;;;;;;;26.05;11.45;;;0.60;99.90;;;;;;1944557;74;21488;-75
2020/12/03 00:23:29;;;;;;;23.10;11.90;;;0.70;99.90;;;;;;1944772;74;21475;-75
2020/12/03 00:25:55;;;;;;;25.82;12.25;;;0.70;99.90;;;;;;1944508;74;21150;-74
2020/12/03 00:28:21;;;;;;;27.58;11.18;;;0.70;99.90;;;;;;1944509;74;21197;-73
2020/12/03 00:30:47;;;;;;;29.65;13.88;;;0.80;99.90;;;;;;1944570;74;21064;-73
2020/12/03 00:33:17;;;;;;;24.92;12.40;;;0.60;99.90;;;;;;1944820;74;21040;-74
2020/12/03 00:35:41;;;;;;;29.98;13.00;;;0.40;99.90;;;;;;1944072;74;21184;-74
2020/12/03 00:38:07;;;;;;;32.98;13.70;;;0.40;99.90;;;;;;1944699;74;21105;-73
2020/12/03 00:40:33;;;;;;;31.48;13.15;;;0.50;99.90;;;;;;1944692;74;21067;-73
2020/12/03 00:42:59;;;;;;;33.75;11.63;;;0.70;99.90;;;;;;1944684;74;21088;-73
2020/12/03 00:45:25;;;;;;;25.82;11.08;;;0.70;99.90;;;;;;1944682;74;21141;-74
2020/12/03 00:47:51;;;;;;;29.82;12.37;;;0.70;99.90;;;;;;1944772;74;21075;-73
2020/12/03 00:50:18;;;;;;;26.75;11.38;;;0.80;99.90;;;;;;1944821;74;21149;-74
2020/12/03 00:52:44;;;;;;;32.73;12.43;;;0.80;99.90;;;;;;1944807;74;21063;-73
2020/12/03 00:55:10;;;;;;;33.80;12.82;;;0.80;99.90;;;;;;1944766;74;21036;-73
2020/12/03 00:57:36;;;;;;;33.28;12.47;;;0.70;99.90;;;;;;1944655;74;21067;-73
2020/12/03 01:00:02;;;;;;;22.67;11.00;;;0.60;99.90;;;;;;1944647;74;21100;-74
2020/12/03 01:02:28;;;;;;;27.42;11.60;;;0.70;99.90;;;;;;1944664;74;21083;-74
2020/12/03 01:04:54;;;;;;;25.57;12.03;;;0.80;99.90;;;;;;1944672;74;21075;-73
2020/12/03 01:07:20;;;;;;;27.40;11.73;;;0.90;99.90;;;;;;1944696;74;21036;-73
2020/12/03 01:09:47;;;;;;;25.20;12.03;;;0.90;99.90;;;;;;1944771;74;21448;-73
2020/12/03 01:12:13;;;;;;;22.90;11.75;;;0.90;99.90;;;;;;1944665;74;21534;-72
2020/12/03 01:14:39;;;;;;;25.50;12.20;;;0.80;99.90;;;;;;1944863;74;21605;-74
2020/12/03 01:17:05;;;;;;;34.45;13.20;;;1.00;99.90;;;;;;1944566;74;21582;-74
2020/12/03 01:19:31;;;;;;;33.20;12.63;;;0.90;99.90;;;;;;1944745;74;21114;-74
2020/12/03 01:21:57;;;;;;;40.40;13.30;;;1.00;99.90;;;;;;1944499;74;21095;-74
2020/12/03 01:24:23;;;;;;;32.65;12.23;;;0.90;99.90;;;;;;1944787;74;21070;-74
2020/12/03 01:26:51;;;;;;;25.02;11.97;;;0.80;99.90;;;;;;1944476;74;21096;-73
2020/12/03 01:29:17;;;;;;;27.65;10.90;;;0.90;99.90;;;;;;1944684;74;21572;-74
2020/12/03 01:31:43;;;;;;;29.12;12.93;;;0.90;99.90;;;;;;1944587;74;21100;-74
2020/12/03 01:34:11;;;;;;;25.60;12.33;;;0.90;99.90;;;;;;1944590;74;21063;-73
2020/12/03 01:36:37;;;;;;;34.80;12.98;;;0.90;99.90;;;;;;1944612;74;21074;-73
2020/12/03 01:39:03;;;;;;;28.70;13.28;;;0.70;99.90;;;;;;1944671;74;21059;-73
2020/12/03 01:41:29;;;;;;;28.95;11.90;;;0.70;99.90;;;;;;1944733;74;21132;-73
2020/12/03 01:43:55;;;;;;;23.87;12.53;;;0.70;99.90;;;;;;1944655;74;21028;-73
2020/12/03 01:46:21;;;;;;;27.67;11.97;;;0.80;99.90;;;;;;1944651;74;21134;-73
2020/12/03 01:48:48;;;;;;;27.10;12.35;;;0.80;99.90;;;;;;1944626;74;21079;-73
2020/12/03 01:51:14;;;;;;;24.40;13.05;;;0.70;99.90;;;;;;1944623;74;21107;-74
2020/12/03 01:53:40;;;;;;;31.37;13.35;;;0.70;99.90;;;;;;1944615;74;21594;-74
2020/12/03 01:56:08;;;;;;;24.92;12.68;;;0.60;99.90;;;;;;1944593;74;21453;-74
2020/12/03 01:58:34;;;;;;;26.02;13.40;;;0.70;99.90;;;;;;1944597;74;21089;-74
2020/12/03 02:01:00;;;;;;;31.60;13.28;;;0.70;99.90;;;;;;1944628;74;21087;-75
2020/12/03 02:03:26;;;;;;;25.32;12.90;;;0.70;99.90;;;;;;1944656;74;21092;-75
2020/12/03 02:05:52;;;;;;;32.85;14.53;;;0.60;99.90;;;;;;1944609;74;21071;-74
2020/12/03 02:08:18;;;;;;;35.40;13.13;;;0.60;99.90;;;;;;1944613;74;21070;-73
2020/12/03 02:10:44;;;;;;;34.08;14.15;;;0.60;99.90;;;;;;1944720;74;21548;-73
2020/12/03 02:13:10;;;;;;;23.87;12.95;;;0.70;99.90;;;;;;1944523;74;21609;-74
2020/12/03 02:15:37;;;;;;;30.17;12.78;;;0.70;99.90;;;;;;1944480;74;21535;-73
2020/12/03 02:18:03;;;;;;;35.95;13.60;;;0.70;99.90;;;;;;1944689;74;21464;-73
2020/12/03 02:20:29;;;;;;;36.42;14.05;;;0.60;99.90;;;;;;1944519;74;21187;-74
2020/12/03 02:22:55;;;;;;;35.70;14.47;;;0.70;99.90;;;;;;1944740;74;21125;-74
2020/12/03 02:25:21;;;;;;;25.45;12.90;;;0.60;99.90;;;;;;1944488;74;21220;-74
2020/12/03 02:27:47;;;;;;;27.25;13.75;;;0.70;99.90;;;;;;1944697;74;21066;-73
2020/12/03 02:30:13;;;;;;;26.87;13.98;;;0.60;99.90;;;;;;1944597;74;21088;-74
2020/12/03 02:32:39;;;;;;;32.23;15.23;;;0.60;99.90;;;;;;1944636;74;21087;-74
2020/12/03 02:35:05;;;;;;;30.35;14.07;;;0.60;99.90;;;;;;1944555;74;21067;-74
2020/12/03 02:37:32;;;;;;;26.62;13.70;;;0.60;99.90;;;;;;1944673;74;21168;-74
2020/12/03 02:39:58;;;;;;;27.58;12.82;;;0.60;99.90;;;;;;1944684;74;21054;-73
2020/12/03 02:42:24;;;;;;;30.95;12.45;;;0.60;99.90;;;;;;1944570;74;21083;-74
2020/12/03 02:44:50;;;;;;;31.37;13.25;;;0.60;99.90;;;;;;1944698;74;21167;-74
2020/12/03 02:47:16;;;;;;;35.58;14.87;;;0.50;99.90;;;;;;1944594;74;21092;-74
2020/12/03 02:49:42;;;;;;;31.45;12.98;;;0.60;99.90;;;;;;1944559;74;21076;-74
2020/12/03 02:52:08;;;;;;;39.73;14.70;;;0.60;99.90;;;;;;1944540;74;21062;-74
2020/12/03 02:54:34;;;;;;;30.88;13.50;;;0.50;99.90;;;;;;1944531;74;21157;-74
2020/12/03 02:57:01;;;;;;;29.72;13.35;;;0.60;99.90;;;;;;1944702;74;21120;-75
2020/12/03 02:59:27;;;;;;;28.70;13.22;;;0.60;99.90;;;;;;1944595;74;21476;-74
2020/12/03 03:01:53;;;;;;;31.27;14.28;;;0.60;99.90;;;;;;1944569;74;21491;-74
2020/12/03 03:04:19;;;;;;;29.35;12.88;;;0.50;99.90;;;;;;1944574;74;21523;-74
2020/12/03 03:06:45;;;;;;;31.52;14.65;;;0.50;99.90;;;;;;1944566;74;21535;-74
2020/12/03 03:09:11;;;;;;;30.08;13.75;;;0.60;99.90;;;;;;1944557;74;21205;-75
2020/12/03 03:11:37;;;;;;;38.45;14.07;;;0.60;99.90;;;;;;1944678;74;21059;-72
2020/12/03 03:14:04;;;;;;;29.50;13.93;;;0.60;99.90;;;;;;1944615;74;21073;-73
2020/12/03 03:16:30;;;;;;;27.48;13.03;;;0.60;99.90;;;;;;1944563;74;21103;-74
2020/12/03 03:18:56;;;;;;;31.97;13.58;;;0.60;99.90;;;;;;1944667;74;21141;-74
2020/12/03 03:21:22;;;;;;;42.23;14.87;;;0.50;99.90;;;;;;1944580;74;21099;-73
2020/12/03 03:23:48;;;;;;;32.42;12.53;;;0.50;99.90;;;;;;1944648;74;21036;-73
2020/12/03 03:26:14;;;;;;;30.62;14.20;;;0.50;99.90;;;;;;1944464;74;21089;-73
2020/12/03 03:28:40;;;;;;;31.87;13.40;;;0.50;99.90;;;;;;1944642;74;21079;-73
2020/12/03 03:31:06;;;;;;;28.23;13.18;;;0.40;99.90;;;;;;1944573;74;21511;-74
2020/12/03 03:33:32;;;;;;;32.03;13.98;;;0.50;99.90;;;;;;1944541;74;21532;-74
2020/12/03 03:35:59;;;;;;;31.90;14.35;;;0.50;99.90;;;;;;1944396;74;21516;-74
2020/12/03 03:38:25;;;;;;;30.37;14.95;;;0.50;99.90;;;;;;1944618;74;21506;-73
2020/12/03 03:40:51;;;;;;;33.70;13.13;;;0.50;99.90;;;;;;1944441;74;21100;-75
2020/12/03 03:43:17;;;;;;;37.05;13.43;;;0.50;99.90;;;;;;1944413;74;21134;-74
2020/12/03 03:45:43;;;;;;;36.63;15.32;;;0.50;99.90;;;;;;1944675;74;21084;-74
2020/12/03 03:48:09;;;;;;;31.75;14.87;;;0.50;99.90;;;;;;1944464;74;21100;-73
2020/12/03 03:50:35;;;;;;;30.50;12.85;;;0.40;99.90;;;;;;1944494;74;21092;-75
2020/12/03 03:53:01;;;;;;;30.82;14.00;;;0.50;99.90;;;;;;1944647;74;21122;-73
2020/12/03 03:55:28;;;;;;;32.85;14.10;;;0.50;99.90;;;;;;1944566;74;21096;-73
2020/12/03 03:57:54;;;;;;;28.73;14.18;;;0.60;99.90;;;;;;1944677;74;21040;-73
2020/12/03 04:00:20;;;;;;;30.12;12.80;;;0.50;99.90;;;;;;1944627;74;21071;-72
2020/12/03 04:02:46;;;;;;;32.55;14.83;;;0.50;99.90;;;;;;1944685;74;21055;-74
2020/12/03 04:05:12;;;;;;;42.00;13.65;;;0.50;99.90;;;;;;1944800;74;21110;-73
2020/12/03 04:07:38;;;;;;;30.35;14.33;;;0.50;99.90;;;;;;1944601;74;21103;-73
2020/12/03 04:10:04;;;;;;;33.45;14.03;;;0.60;99.90;;;;;;1944811;74;21160;-74
2020/12/03 04:12:30;;;;;;;35.13;16.35;;;0.60;99.90;;;;;;1944577;74;21181;-73
2020/12/03 04:15:00;;;;;;;34.10;15.45;;;0.60;99.90;;;;;;1944791;74;21078;-73
2020/12/03 04:17:24;;;;;;;38.23;14.87;;;0.50;99.90;;;;;;1944226;74;21091;-72
2020/12/03 04:19:50;;;;;;;31.55;15.20;;;0.50;99.90;;;;;;1944710;74;21036;-74
2020/12/03 04:22:17;;;;;;;32.83;14.55;;;0.40;99.90;;;;;;1944668;74;21070;-72
2020/12/03 04:24:43;;;;;;;31.48;15.30;;;0.50;99.90;;;;;;1944713;74;21075;-74
2020/12/03 04:27:09;;;;;;;43.25;15.83;;;0.60;99.90;;;;;;1944805;74;21071;-74
2020/12/03 04:29:35;;;;;;;37.48;14.58;;;0.60;99.90;;;;;;1944703;74;21066;-72
2020/12/03 04:32:01;;;;;;;34.98;14.85;;;0.60;99.90;;;;;;1944694;74;21066;-73
2020/12/03 04:34:27;;;;;;;28.37;13.97;;;0.70;99.90;;;;;;1944665;74;21054;-74
2020/12/03 04:36:53;;;;;;;35.40;14.03;;;0.70;99.90;;;;;;1944595;74;21187;-74
2020/12/03 04:39:19;;;;;;;29.32;14.47;;;0.70;99.90;;;;;;1944692;74;21468;-72
2020/12/03 04:41:46;;;;;;;33.55;14.00;;;0.80;99.90;;;;;;1944666;74;21568;-74
2020/12/03 04:44:12;;;;;;;24.35;13.53;;;0.90;99.90;;;;;;1944674;74;21695;-75
2020/12/03 04:46:38;;;;;;;30.97;14.60;;;0.80;99.90;;;;;;1944634;74;21499;-73
2020/12/03 04:49:04;;;;;;;29.50;14.87;;;0.80;99.90;;;;;;1944660;74;21521;-74
2020/12/03 04:51:30;;;;;;;31.57;14.05;;;0.80;99.90;;;;;;1944662;74;21539;-73
2020/12/03 04:53:56;;;;;;;32.85;15.08;;;0.90;99.90;;;;;;1944636;74;21436;-73
2020/12/03 04:56:24;;;;;;;30.12;13.58;;;0.90;99.90;;;;;;1944587;74;21505;-72
2020/12/03 04:58:50;;;;;;;28.50;14.15;;;0.90;99.90;;;;;;1944574;74;21107;-73
2020/12/03 05:01:16;;;;;;;31.60;14.75;;;1.00;99.90;;;;;;1944673;74;21036;-74
2020/12/03 05:03:42;;;;;;;32.78;13.88;;;1.00;99.90;;;;;;1944664;74;21119;-74
2020/12/03 05:06:08;;;;;;;33.55;14.40;;;1.00;99.90;;;;;;1944683;74;21103;-74
2020/12/03 05:08:35;;;;;;;34.53;14.87;;;0.90;99.90;;;;;;1944653;74;21494;-74
2020/12/03 05:11:01;;;;;;;32.50;14.15;;;0.90;99.90;;;;;;1944690;74;21413;-73
2020/12/03 05:13:27;;;;;;;29.75;13.43;;;0.90;99.90;;;;;;1944855;74;21479;-73
2020/12/03 05:15:53;;;;;;;32.67;14.23;;;0.80;99.90;;;;;;1944583;74;21502;-74
2020/12/03 05:18:19;;;;;;;34.90;14.10;;;1.00;99.90;;;;;;1944655;74;21063;-74
2020/12/03 05:20:45;;;;;;;35.68;14.00;;;0.90;99.90;;;;;;1944633;74;21028;-74
2020/12/03 05:23:11;;;;;;;30.70;13.80;;;1.10;99.90;;;;;;1944819;74;21059;-74
2020/12/03 05:25:37;;;;;;;45.60;14.98;;;1.00;99.90;;;;;;1944857;74;21019;-74
2020/12/03 05:28:04;;;;;;;29.95;13.65;;;1.00;99.90;;;;;;1944589;74;21063;-75
2020/12/03 05:30:30;;;;;;;42.27;14.95;;;1.00;99.90;;;;;;1944637;74;21071;-72
2020/12/03 05:32:56;;;;;;;37.30;16.12;;;1.00;99.90;;;;;;1944548;74;21155;-74
2020/12/03 05:35:22;;;;;;;31.75;14.13;;;0.80;99.90;;;;;;1944600;74;21192;-73
2020/12/03 05:37:48;;;;;;;31.30;14.23;;;0.80;99.90;;;;;;1944652;74;21075;-72
2020/12/03 05:40:14;;;;;;;34.08;14.87;;;0.80;99.90;;;;;;1944735;74;21063;-73
2020/12/03 05:42:40;;;;;;;33.65;14.95;;;0.90;99.90;;;;;;1944679;74;21463;-74
2020/12/03 05:45:07;;;;;;;39.25;14.33;;;0.90;99.90;;;;;;1944545;74;21539;-75
2020/12/03 05:47:33;;;;;;;30.17;13.18;;;0.90;99.90;;;;;;1944779;74;21564;-75
2020/12/03 05:49:59;;;;;;;35.30;15.28;;;0.90;99.90;;;;;;1944514;74;21594;-73
2020/12/03 05:52:25;;;;;;;28.92;12.98;;;0.80;99.90;;;;;;1944739;74;21063;-74
2020/12/03 05:54:51;;;;;;;26.20;13.32;;;0.80;99.90;;;;;;1944526;74;21084;-74
2020/12/03 05:57:17;;;;;;;29.23;13.13;;;0.90;99.90;;;;;;1944749;74;21028;-74
2020/12/03 05:59:50;;;;;;;34.55;14.33;;;0.80;99.90;;;;;;1944497;74;21161;-73
2020/12/03 06:02:11;;;;;;;34.43;14.15;;;0.80;99.90;;;;;;1943377;74;21456;-74
2020/12/03 06:04:37;;;;;;;29.37;12.63;;;0.80;99.90;;;;;;1944527;74;21640;-75
2020/12/03 06:07:03;;;;;;;26.10;13.50;;;0.80;99.90;;;;;;1944704;74;21059;-74
2020/12/03 06:09:29;;;;;;;29.27;13.22;;;0.80;99.90;;;;;;1944775;74;21063;-73
2020/12/03 06:11:56;;;;;;;31.85;13.80;;;0.80;99.90;;;;;;1944871;74;21032;-71
2020/12/03 06:14:22;;;;;;;34.63;13.60;;;0.80;99.90;;;;;;1944800;74;21096;-72
2020/12/03 06:16:48;;;;;;;26.17;12.50;;;0.90;99.90;;;;;;1944749;74;21063;-73
2020/12/03 06:19:14;;;;;;;30.43;14.78;;;0.90;99.90;;;;;;1944452;74;21143;-73
2020/12/03 06:21:40;;;;;;;35.85;14.07;;;0.90;99.90;;;;;;1944685;74;21028;-73
2020/12/03 06:24:06;;;;;;;26.82;12.65;;;0.90;99.90;;;;;;1944598;74;21096;-73
2020/12/03 06:26:32;;;;;;;32.17;13.83;;;0.90;99.90;;;;;;1944519;74;21231;-73
2020/12/03 06:28:58;;;;;;;28.77;12.73;;;0.90;99.90;;;;;;1944603;74;21076;-73
2020/12/03 06:31:25;;;;;;;31.60;14.45;;;0.90;99.90;;;;;;1944486;74;21600;-73
2020/12/03 06:33:51;;;;;;;34.33;14.80;;;0.90;99.90;;;;;;1944586;74;21535;-73
2020/12/03 06:36:17;;;;;;;31.40;13.45;;;0.90;99.90;;;;;;1944581;74;21491;-75
2020/12/03 06:38:43;;;;;;;26.60;13.85;;;0.90;99.90;;;;;;1944545;74;21601;-75
2020/12/03 06:41:09;;;;;;;26.05;12.40;;;0.90;99.90;;;;;;1944541;74;21088;-74
2020/12/03 06:43:35;;;;;;;27.65;13.15;;;0.90;99.90;;;;;;1944559;74;21076;-73
2020/12/03 06:46:03;;;;;;;26.87;12.60;;;0.90;99.90;;;;;;1944579;74;21188;-75
2020/12/03 06:48:29;;;;;;;24.45;12.45;;;1.00;99.90;;;;;;1944435;74;21554;-74
2020/12/03 06:50:55;;;;;;;31.23;13.80;;;1.00;99.90;;;;;;1944468;74;21503;-74
2020/12/03 06:53:21;;;;;;;34.03;12.20;;;1.00;99.90;;;;;;1944684;74;21483;-73
2020/12/03 06:55:47;;;;;;;34.45;13.58;;;1.00;99.90;;;;;;1944443;74;21418;-73
2020/12/03 06:58:14;;;;;;;29.98;14.70;;;1.00;99.90;;;;;;1944678;74;21129;-73
2020/12/03 07:00:40;;;;;;;25.77;12.68;;;1.00;99.90;;;;;;1944405;74;21186;-73
2020/12/03 07:03:06;;;;;;;27.75;13.43;;;1.10;99.90;;;;;;1944672;74;21063;-72
2020/12/03 07:05:32;;;;;;;30.68;13.65;;;1.10;99.90;;;;;;1944520;74;21084;-73
2020/12/03 07:07:58;;;;;;;28.87;13.05;;;1.10;99.90;;;;;;1944459;74;21111;-73
2020/12/03 07:10:24;;;;;;;34.18;14.33;;;1.00;99.90;;;;;;1944669;74;21067;-74
2020/12/03 07:12:50;;;;;;;39.55;14.65;;;1.00;99.90;;;;;;1944761;74;21063;-74
2020/12/03 07:15:16;;;;;;;27.02;13.08;;;1.00;99.90;;;;;;1944707;74;21133;-74
2020/12/03 07:17:43;;;;;;;31.50;13.60;;;1.10;99.90;;;;;;1944736;74;21079;-75
2020/12/03 07:20:09;;;;;;;27.77;12.03;;;1.10;99.90;;;;;;1944699;74;21122;-73
2020/12/03 07:22:35;;;;;;;30.65;13.35;;;1.20;99.90;;;;;;1944402;74;21092;-73
2020/12/03 07:25:01;;;;;;;19.23;10.28;;;1.20;99.90;;;;;;1944653;74;21149;-72
2020/12/03 07:27:27;;;;;;;32.75;12.70;;;1.20;99.90;;;;;;1944455;74;21084;-73
2020/12/03 07:29:53;;;;;;;24.80;12.13;;;1.10;99.90;;;;;;1944635;74;21110;-73
2020/12/03 07:32:19;;;;;;;32.78;13.78;;;1.20;99.90;;;;;;1944429;74;21095;-73
2020/12/03 07:34:45;;;;;;;26.68;12.07;;;1.10;99.90;;;;;;1944650;74;21548;-73
2020/12/03 07:37:12;;;;;;;28.75;13.98;;;1.10;99.90;;;;;;1944385;74;21612;-74
2020/12/03 07:39:38;;;;;;;26.82;12.75;;;1.10;99.90;;;;;;1944734;74;21428;-73
2020/12/03 07:42:04;;;;;;;27.37;13.13;;;1.20;99.90;;;;;;1944654;74;21536;-75
2020/12/03 07:44:30;;;;;;;35.15;12.98;;;1.20;99.90;;;;;;1944659;74;21443;-74
2020/12/03 07:46:56;;;;;;;33.35;12.75;;;1.20;99.90;;;;;;1944605;74;21510;-74
2020/12/03 07:49:22;;;;;;;31.35;13.28;;;1.40;99.90;;;;;;1944551;74;21511;-74
2020/12/03 07:51:48;;;;;;;30.35;13.03;;;1.40;99.90;;;;;;1944443;74;21052;-76
2020/12/03 07:54:14;;;;;;;32.23;13.20;;;1.40;99.90;;;;;;1944715;74;21036;-73
2020/12/03 07:56:43;;;;;;;28.50;13.15;;;1.40;99.90;;;;;;1944481;74;21103;-73
2020/12/03 07:59:08;;;;;;;37.38;13.30;;;1.50;99.90;;;;;;1944513;74;21503;-71
2020/12/03 08:01:34;;;;;;;29.87;12.63;;;1.50;99.90;;;;;;1944497;74;21464;-72
2020/12/03 08:04:01;;;;;;;27.32;12.88;;;1.50;99.90;;;;;;1944761;74;21491;-72
2020/12/03 08:06:27;;;;;;;30.62;15.70;;;1.50;99.90;;;;;;1944668;74;21486;-74
2020/12/03 08:08:53;;;;;;;33.80;14.18;;;1.50;99.90;;;;;;1944750;74;21113;-72
2020/12/03 08:11:19;;;;;;;29.18;13.18;;;1.50;99.90;;;;;;1944548;74;21103;-73
2020/12/03 08:13:46;;;;;;;24.25;12.43;;;1.50;99.90;;;;;;1944653;74;21067;-74
2020/12/03 08:16:12;;;;;;;28.85;12.80;;;1.60;99.90;;;;;;1944529;74;21137;-71
2020/12/03 08:18:38;;;;;;;22.95;12.28;;;1.60;99.90;;;;;;1944750;74;21059;-73
2020/12/03 08:21:04;;;;;;;33.08;13.20;;;1.60;99.90;;;;;;1944642;74;21064;-72
2020/12/03 08:23:30;;;;;;;29.67;11.83;;;1.70;99.90;;;;;;1944811;74;21024;-73
2020/12/03 08:25:56;;;;;;;28.05;11.63;;;1.80;99.90;;;;;;1944552;74;21091;-72
2020/12/03 08:28:22;;;;;;;24.35;12.37;;;1.80;99.90;;;;;;1944791;74;21098;-72
2020/12/03 08:30:52;;;;;;;25.50;11.38;;;1.80;99.90;;;;;;1944642;74;21125;-73
2020/12/03 08:33:23;;;;;;;23.67;12.18;;;1.90;99.90;;;;;;1944595;74;21104;-72
2020/12/03 08:35:46;;;;;;;27.35;12.18;;;1.80;99.90;;;;;;1943547;74;21087;-74
2020/12/03 08:38:12;;;;;;;22.80;10.72;;;1.80;99.90;;;;;;1944631;74;21136;-73
2020/12/03 08:40:38;;;;;;;23.20;11.35;;;1.70;99.90;;;;;;1944616;74;21071;-73
2020/12/03 08:43:07;;;;;;;21.02;11.50;;;1.80;99.90;;;;;;1944569;74;21075;-72
2020/12/03 08:45:40;;;;;;;25.10;11.12;;;1.80;99.90;;;;;;1945112;74;21096;-73
2020/12/03 08:48:00;;;;;;;23.85;11.60;;;1.90;99.90;;;;;;1938165;74;21489;-73
2020/12/03 08:50:26;;;;;;;26.57;11.15;;;1.90;99.90;;;;;;1945222;74;21084;-72
2020/12/03 08:52:52;;;;;;;28.57;11.80;;;1.90;99.90;;;;;;1944772;74;21067;-72
2020/12/03 08:55:18;;;;;;;22.77;11.03;;;1.90;99.90;;;;;;1944697;74;21071;-73
2020/12/03 08:57:45;;;;;;;24.55;12.28;;;1.90;99.90;;;;;;1944647;74;21173;-73
2020/12/03 09:00:11;;;;;;;31.12;11.30;;;2.00;99.90;;;;;;1944881;74;21065;-73
2020/12/03 09:02:37;;;;;;;24.43;11.60;;;2.00;99.90;;;;;;1944525;74;21655;-71
2020/12/03 09:05:03;;;;;;;25.70;10.82;;;2.00;99.90;;;;;;1944634;74;21554;-73
2020/12/03 09:07:29;;;;;;;23.27;10.82;;;2.00;99.90;;;;;;1944598;74;21145;-73
2020/12/03 09:09:56;;;;;;;22.85;12.47;;;2.00;99.90;;;;;;1944797;74;21075;-74
2020/12/03 09:12:22;;;;;;;28.80;13.10;;;2.00;99.90;;;;;;1944475;74;21145;-74
2020/12/03 09:14:49;;;;;;;21.62;11.25;;;2.00;99.90;;;;;;1944611;74;21519;-74
2020/12/03 09:17:15;;;;;;;29.07;12.63;;;2.10;99.90;;;;;;1944615;74;21071;-72
2020/12/03 09:19:41;;;;;;;24.70;12.70;;;2.20;99.90;;;;;;1944645;74;21115;-74
2020/12/03 09:22:07;;;;;;;22.73;11.05;;;2.30;99.90;;;;;;1944594;74;21493;-74
2020/12/03 09:24:34;;;;;;;26.15;11.95;;;2.20;99.90;;;;;;1944697;74;21486;-74
2020/12/03 09:27:01;;;;;;;22.62;11.28;;;2.30;99.90;;;;;;1944544;74;21546;-73
2020/12/03 09:29:27;;;;;;;22.13;11.35;;;2.30;99.90;;;;;;1944778;74;21079;-75
2020/12/03 09:31:54;;;;;;;17.95;10.15;;;2.30;99.90;;;;;;1944408;74;21158;-75
2020/12/03 09:34:26;;;;;;;26.87;11.60;;;2.40;99.90;;;;;;1944532;74;21119;-74
2020/12/03 09:36:52;;;;;;;21.00;11.43;;;2.30;99.90;;;;;;1944354;74;21531;-74
2020/12/03 09:39:18;;;;;;;23.85;11.40;;;2.30;99.90;;;;;;1944601;74;21063;-74
2020/12/03 09:41:44;;;;;;;23.00;11.70;;;2.30;99.90;;;;;;1944725;74;21110;-74
2020/12/03 09:44:10;;;;;;;23.50;11.25;;;2.30;99.90;;;;;;1944496;74;21104;-73
2020/12/03 09:46:38;;;;;;;19.27;11.33;;;2.50;99.90;;;;;;1944688;74;21083;-75
2020/12/03 09:49:04;;;;;;;22.67;11.68;;;2.50;99.90;;;;;;1944370;74;21547;-74
2020/12/03 09:51:30;;;;;;;31.05;12.00;;;2.60;99.90;;;;;;1944476;74;21113;-74
2020/12/03 09:53:56;;;;;;;28.32;11.40;;;2.60;99.90;;;;;;1944688;74;21132;-73
2020/12/03 09:56:23;;;;;;;20.82;10.88;;;2.70;99.90;;;;;;1944471;74;21100;-73
2020/12/03 09:58:51;;;;;;;18.82;9.75;;;2.80;99.90;;;;;;1944647;74;21145;-73
2020/12/03 10:01:16;;;;;;;17.98;9.63;;;2.70;99.90;;;;;;1944242;74;21092;-72
2020/12/03 10:03:45;;;;;;;24.52;11.38;;;2.80;99.90;;;;;;1944747;74;21067;-73
2020/12/03 10:06:11;;;;;;;27.48;11.12;;;2.90;99.90;;;;;;1944192;74;21459;-74
2020/12/03 10:08:37;;;;;;;20.35;10.45;;;3.00;99.90;;;;;;1944472;74;21217;-76
2020/12/03 10:11:07;;;;;;;26.70;10.90;;;2.90;99.90;;;;;;1944594;74;21096;-73
2020/12/03 10:13:31;;;;;;;19.25;9.00;;;2.90;99.90;;;;;;1943051;74;21107;-73
2020/12/03 10:16:01;;;;;;;24.05;10.00;;;3.00;99.90;;;;;;1944542;74;21189;-74
2020/12/03 10:18:25;;;;;;;20.10;10.05;;;2.80;99.90;;;;;;1944057;74;21596;-73
2020/12/03 10:20:51;;;;;;;32.95;9.53;;;2.90;99.90;;;;;;1944481;74;21547;-74
2020/12/03 10:23:18;;;;;;;20.92;9.63;;;2.80;99.90;;;;;;1944652;74;21036;-74
2020/12/03 10:25:44;;;;;;;17.27;8.10;;;2.80;99.90;;;;;;1944573;74;21144;-74
2020/12/03 10:28:10;;;;;;;20.82;9.05;;;3.00;99.90;;;;;;1944728;74;21067;-74
2020/12/03 10:30:36;;;;;;;19.23;8.30;;;3.10;99.90;;;;;;1944401;74;21104;-75
2020/12/03 10:33:02;;;;;;;14.28;8.40;;;3.10;99.90;;;;;;1944620;74;21083;-75
2020/12/03 10:35:28;;;;;;;12.68;7.42;;;3.10;99.90;;;;;;1944566;74;21102;-75
2020/12/03 10:37:55;;;;;;;11.20;6.42;;;3.10;99.90;;;;;;1944561;74;21075;-73
2020/12/03 10:40:21;;;;;;;19.45;6.87;;;3.20;99.90;;;;;;1944515;74;21193;-74
2020/12/03 10:42:47;;;;;;;17.67;7.42;;;3.40;99.90;;;;;;1944652;74;21556;-74
2020/12/03 10:45:15;;;;;;;15.00;6.30;;;3.50;99.90;;;;;;1944446;74;21131;-74
2020/12/03 10:47:41;;;;;;;11.70;6.37;;;3.60;99.90;;;;;;1944488;74;21091;-73
2020/12/03 10:50:07;;;;;;;16.17;7.12;;;3.60;99.90;;;;;;1944727;74;21071;-74
2020/12/03 10:52:33;;;;;;;12.82;7.00;;;3.70;99.90;;;;;;1944485;74;21111;-74
2020/12/03 10:55:03;;;;;;;13.50;7.33;;;3.60;99.90;;;;;;1944672;74;21070;-73
2020/12/03 10:57:27;;;;;;;16.57;6.28;;;3.60;99.90;;;;;;1943616;73;21594;-72
2020/12/03 10:59:53;;;;;;;14.05;6.92;;;3.70;99.90;;;;;;1944587;74;21558;-72
2020/12/03 11:02:20;;;;;;;16.15;6.33;;;3.70;99.90;;;;;;1944495;74;21539;-74
2020/12/03 11:04:46;;;;;;;12.00;6.12;;;3.80;99.90;;;;;;1944626;74;21072;-74
2020/12/03 11:07:13;;;;;;;10.53;6.03;;;4.00;99.90;;;;;;1944467;74;21096;-74
2020/12/03 11:09:39;;;;;;;9.05;5.60;;;4.00;99.90;;;;;;1944671;73;21070;-73
2020/12/03 11:12:05;;;;;;;11.35;5.95;;;3.90;99.90;;;;;;1944464;74;21099;-75
2020/12/03 11:14:32;;;;;;;17.23;6.20;;;3.90;99.90;;;;;;1944662;74;21071;-74
2020/12/03 11:16:58;;;;;;;11.40;5.83;;;4.00;99.90;;;;;;1944572;74;21185;-75
2020/12/03 11:19:24;;;;;;;10.48;5.62;;;3.90;99.90;;;;;;1944720;74;21114;-75
2020/12/03 11:21:50;;;;;;;9.20;5.15;;;3.90;99.90;;;;;;1944688;74;21148;-73
2020/12/03 11:24:16;;;;;;;9.13;5.20;;;3.90;99.90;;;;;;1944683;74;21032;-74
2020/12/03 11:26:43;;;;;;;6.15;4.17;;;4.10;99.90;;;;;;1944719;74;21066;-72
2020/12/03 11:29:09;;;;;;;7.92;3.40;;;4.00;99.90;;;;;;1944680;74;21032;-72
2020/12/03 11:31:35;;;;;;;6.05;3.20;;;4.00;99.90;;;;;;1944670;74;21040;-73
2020/12/03 11:34:02;;;;;;;7.95;4.33;;;3.90;99.90;;;;;;1944714;74;21132;-73
2020/12/03 11:36:28;;;;;;;6.62;3.77;;;3.90;99.90;;;;;;1944882;74;21036;-72
2020/12/03 11:38:56;;;;;;;4.62;2.92;;;4.00;99.90;;;;;;1944551;74;21201;-73
2020/12/03 11:41:36;;;;;;;7.97;3.37;;;3.90;99.90;;;;;;1944491;73;21159;-74
2020/12/03 11:49:05;;;;;;;5.10;3.27;;;4.00;99.90;;;;;;1944461;74;21181;-75
2020/12/03 11:51:31;;;;;;;4.58;3.20;;;3.90;99.90;;;;;;1944805;74;21129;-75
2020/12/03 11:53:57;;;;;;;6.55;3.55;;;4.00;99.90;;;;;;1944665;74;21072;-73
2020/12/03 11:56:23;;;;;;;7.42;2.87;;;4.00;99.90;;;;;;1944632;74;21507;-75
2020/12/03 11:58:49;;;;;;;3.05;2.40;;;4.00;99.90;;;;;;1944634;74;21110;-75
2020/12/03 12:01:17;;;;;;;6.60;3.12;;;4.10;99.90;;;;;;1944656;74;21204;-75
2020/12/03 12:03:46;;;;;;;3.58;2.95;;;4.00;99.90;;;;;;1944766;73;21145;-74
2020/12/03 12:06:28;;;;;;;12.98;3.37;;;3.90;99.90;;;;;;1944130;74;21105;-74
2020/12/03 12:08:56;;;;;;;5.60;3.22;;;4.00;99.90;;;;;;1943019;74;21100;-75
2020/12/03 12:11:21;;;;;;;5.08;2.98;;;4.10;99.90;;;;;;1942551;74;21100;-74
2020/12/03 12:13:43;;;;;;;4.58;3.10;;;4.20;99.90;;;;;;1943803;74;21076;-75
2020/12/03 12:16:09;;;;;;;4.50;3.10;;;4.20;99.90;;;;;;1944734;74;21067;-75
2020/12/03 12:18:36;;;;;;;4.20;3.05;;;4.20;99.90;;;;;;1944721;74;21067;-75
2020/12/03 12:21:02;;;;;;;5.42;2.77;;;4.10;99.90;;;;;;1944751;73;21440;-75
2020/12/03 12:23:28;;;;;;;5.72;2.90;;;4.00;99.90;;;;;;1944641;74;21491;-75
2020/12/03 12:25:54;;;;;;;4.28;2.80;;;4.00;99.90;;;;;;1944706;74;21106;-72
2020/12/03 12:28:20;;;;;;;5.17;2.92;;;4.10;99.90;;;;;;1944481;74;21091;-72
2020/12/03 12:30:46;;;;;;;2.72;2.45;;;4.20;99.90;;;;;;1944682;74;21063;-72
2020/12/03 12:33:12;;;;;;;3.10;2.67;;;4.20;99.90;;;;;;1944494;74;21076;-75
2020/12/03 12:35:39;;;;;;;6.22;3.08;;;4.40;99.90;;;;;;1944614;74;21063;-73
2020/12/03 12:38:05;;;;;;;11.48;3.33;;;4.50;99.90;;;;;;1944529;74;21114;-75
2020/12/03 12:40:31;;;;;;;7.92;3.00;;;4.40;99.90;;;;;;1944616;74;21075;-75